createdAt,value
2023-10-29T00:00:47.628Z,2.40
2023-10-29T00:01:47.686Z,1.80
2023-10-29T00:02:47.640Z,1.50
2023-10-29T00:03:47.712Z,1.50
2023-10-29T00:04:47.722Z,1.80
2023-10-29T00:05:47.619Z,1.80
2023-10-29T00:06:47.569Z,1.50
2023-10-29T00:07:48.574Z,1.50
2023-10-29T00:08:47.611Z,1.70
2023-10-29T00:09:47.572Z,1.90
2023-10-29T00:10:47.551Z,1.60
2023-10-29T00:11:47.581Z,1.70
2023-10-29T00:12:47.563Z,1.70
2023-10-29T00:13:47.573Z,1.70
2023-10-29T00:14:47.717Z,1.40
2023-10-29T00:15:47.555Z,1.40
2023-10-29T00:16:47.498Z,1.30
2023-10-29T00:17:47.551Z,1.80
2023-10-29T00:18:47.486Z,1.60
2023-10-29T00:19:47.518Z,1.60
2023-10-29T00:20:47.490Z,1.70
2023-10-29T00:21:47.458Z,1.20
2023-10-29T00:22:47.478Z,1.50
2023-10-29T00:23:47.517Z,1.80
2023-10-29T00:24:47.600Z,2.00
2023-10-29T00:25:47.428Z,1.70
2023-10-29T00:26:47.438Z,1.30
2023-10-29T00:27:47.482Z,1.60
2023-10-29T00:28:47.419Z,1.90
2023-10-29T00:29:47.436Z,1.40
2023-10-29T00:30:47.403Z,1.40
2023-10-29T00:31:47.409Z,1.70
2023-10-29T00:32:47.477Z,1.40
2023-10-29T00:33:47.370Z,1.50
2023-10-29T00:34:47.488Z,1.80
2023-10-29T00:35:47.365Z,2.00
2023-10-29T00:36:47.382Z,1.70
2023-10-29T00:37:47.331Z,1.50
2023-10-29T00:38:47.343Z,1.70
2023-10-29T00:39:47.317Z,1.80
2023-10-29T00:40:47.318Z,2.10
2023-10-29T00:41:47.321Z,1.40
2023-10-29T00:42:47.301Z,1.50
2023-10-29T00:43:47.285Z,1.50
2023-10-29T00:44:47.625Z,1.70
2023-10-29T00:45:47.337Z,1.50
2023-10-29T00:46:47.290Z,1.10
2023-10-29T00:47:47.293Z,1.60
2023-10-29T00:48:47.272Z,1.70
2023-10-29T00:49:47.242Z,1.50
2023-10-29T00:50:47.266Z,1.80
2023-10-29T00:51:47.221Z,1.90
2023-10-29T00:52:47.212Z,1.90
2023-10-29T00:53:47.214Z,1.60
2023-10-29T00:54:47.372Z,1.90
2023-10-29T00:55:47.218Z,1.60
2023-10-29T00:56:47.223Z,1.60
2023-10-29T00:57:47.172Z,1.60
2023-10-29T00:58:47.170Z,1.30
2023-10-29T00:59:47.257Z,1.90
2023-10-29T01:00:47.180Z,1.40
2023-10-29T01:01:47.146Z,1.30
2023-10-29T01:02:47.250Z,1.40
2023-10-29T01:03:47.224Z,1.60
2023-10-29T01:04:47.390Z,1.30
2023-10-29T01:05:47.198Z,1.70
2023-10-29T01:06:47.108Z,1.60
2023-10-29T01:07:47.091Z,1.60
2023-10-29T01:08:48.123Z,1.40
2023-10-29T01:09:47.111Z,1.60
2023-10-29T01:10:47.081Z,1.40
2023-10-29T01:11:47.134Z,1.40
2023-10-29T01:12:47.060Z,1.60
2023-10-29T01:13:47.077Z,1.50
2023-10-29T01:14:47.486Z,1.30
2023-10-29T01:15:47.054Z,1.30
2023-10-29T01:16:47.032Z,1.20
2023-10-29T01:17:47.083Z,1.40
2023-10-29T01:18:47.038Z,1.60
2023-10-29T01:19:47.006Z,1.40
2023-10-29T01:20:47.055Z,1.30
2023-10-29T01:21:46.992Z,1.30
2023-10-29T01:22:46.980Z,1.60
2023-10-29T01:23:47.069Z,1.20
2023-10-29T01:24:47.177Z,1.60
2023-10-29T01:25:46.962Z,1.30
2023-10-29T01:26:46.987Z,1.40
2023-10-29T01:27:47.005Z,1.30
2023-10-29T01:28:46.961Z,1.20
2023-10-29T01:29:46.947Z,1.70
2023-10-29T01:30:46.920Z,1.50
2023-10-29T01:31:46.906Z,1.50
2023-10-29T01:32:47.008Z,1.40
2023-10-29T01:33:46.890Z,1.70
2023-10-29T01:34:47.082Z,1.30
2023-10-29T01:35:46.913Z,1.60
2023-10-29T01:36:46.867Z,1.40
2023-10-29T01:37:46.889Z,1.50
2023-10-29T01:38:46.921Z,1.40
2023-10-29T01:39:46.837Z,1.90
2023-10-29T01:40:46.840Z,1.30
2023-10-29T01:41:46.903Z,1.30
2023-10-29T01:42:46.848Z,1.20
2023-10-29T01:43:46.817Z,1.40
2023-10-29T01:44:46.981Z,1.30
2023-10-29T01:45:46.812Z,1.40
2023-10-29T01:46:46.809Z,1.10
2023-10-29T01:47:46.891Z,1.50
2023-10-29T01:48:46.777Z,1.20
2023-10-29T01:49:46.773Z,1.50
2023-10-29T01:50:46.784Z,1.50
2023-10-29T01:51:46.770Z,1.30
2023-10-29T01:52:46.741Z,1.40
2023-10-29T01:53:46.765Z,1.10
2023-10-29T01:54:46.839Z,1.40
2023-10-29T01:55:47.714Z,1.20
2023-10-29T01:56:46.786Z,1.30
2023-10-29T01:57:47.698Z,1.00
2023-10-29T01:58:46.697Z,1.30
2023-10-29T01:59:46.752Z,1.30
2023-10-29T02:00:46.703Z,1.30
2023-10-29T02:01:46.695Z,1.20
2023-10-29T02:02:46.841Z,1.40
2023-10-29T02:03:46.756Z,1.10
2023-10-29T02:04:46.764Z,1.10
2023-10-29T02:05:46.730Z,1.40
2023-10-29T02:06:46.628Z,1.30
2023-10-29T02:07:46.622Z,1.20
2023-10-29T02:08:46.678Z,1.20
2023-10-29T02:09:46.611Z,1.40
2023-10-29T02:10:46.642Z,1.20
2023-10-29T02:11:46.656Z,1.30
2023-10-29T02:12:46.584Z,1.30
2023-10-29T02:13:46.570Z,1.30
2023-10-29T02:14:46.814Z,1.30
2023-10-29T02:15:46.591Z,1.40
2023-10-29T02:16:46.551Z,1.20
2023-10-29T02:17:46.588Z,1.20
2023-10-29T02:18:46.535Z,1.80
2023-10-29T02:19:46.550Z,1.30
2023-10-29T02:20:46.580Z,1.50
2023-10-29T02:21:46.509Z,1.30
2023-10-29T02:22:46.502Z,1.40
2023-10-29T02:23:46.507Z,1.20
2023-10-29T02:24:46.790Z,1.60
2023-10-29T02:25:46.479Z,1.40
2023-10-29T02:26:46.490Z,1.80
2023-10-29T02:27:46.469Z,1.10
2023-10-29T02:28:46.488Z,1.30
2023-10-29T02:29:46.601Z,1.50
2023-10-29T02:30:46.441Z,1.40
2023-10-29T02:31:46.457Z,1.30
2023-10-29T02:32:46.454Z,1.40
2023-10-29T02:33:46.472Z,1.80
2023-10-29T02:34:46.609Z,1.50
2023-10-29T02:35:46.420Z,1.50
2023-10-29T02:36:46.394Z,1.40
2023-10-29T02:37:46.392Z,1.30
2023-10-29T02:38:46.433Z,1.40
2023-10-29T02:39:46.373Z,1.20
2023-10-29T02:40:46.370Z,1.40
2023-10-29T02:41:46.366Z,1.60
2023-10-29T02:42:46.384Z,1.40
2023-10-29T02:43:46.366Z,1.50
2023-10-29T02:44:46.493Z,1.60
2023-10-29T02:45:46.348Z,1.40
2023-10-29T02:46:46.334Z,1.50
2023-10-29T02:47:46.386Z,1.30
2023-10-29T02:48:46.304Z,1.50
2023-10-29T02:49:46.294Z,1.40
2023-10-29T02:50:46.320Z,1.90
2023-10-29T02:51:46.280Z,2.00
2023-10-29T02:52:46.300Z,2.10
2023-10-29T02:53:46.342Z,1.60
2023-10-29T02:54:46.371Z,1.80
2023-10-29T02:55:46.252Z,2.00
2023-10-29T02:56:46.284Z,1.70
2023-10-29T02:57:46.267Z,1.30
2023-10-29T02:58:46.226Z,1.50
2023-10-29T02:59:46.287Z,1.30
2023-10-29T03:00:46.212Z,1.30
2023-10-29T03:01:46.233Z,1.20
2023-10-29T03:02:46.317Z,1.20
2023-10-29T03:03:46.336Z,1.40
2023-10-29T03:04:46.433Z,1.60
2023-10-29T03:05:56.081Z,1.20
2023-10-29T03:06:48.195Z,1.30
2023-10-29T03:07:46.159Z,1.70
2023-10-29T03:08:46.168Z,1.60
2023-10-29T03:09:46.142Z,1.70
2023-10-29T03:10:46.133Z,1.90
2023-10-29T03:11:46.183Z,1.40
2023-10-29T03:12:46.120Z,1.70
2023-10-29T03:13:46.110Z,1.40
2023-10-29T03:14:46.262Z,1.40
2023-10-29T03:15:46.218Z,1.40
2023-10-29T03:16:46.112Z,1.70
2023-10-29T03:17:46.133Z,1.20
2023-10-29T03:18:46.456Z,1.30
2023-10-29T03:19:46.069Z,1.50
2023-10-29T03:20:46.145Z,1.00
2023-10-29T03:21:46.048Z,1.20
2023-10-29T03:22:46.046Z,1.30
2023-10-29T03:23:46.087Z,1.60
2023-10-29T03:24:46.314Z,1.20
2023-10-29T03:25:46.176Z,1.20
2023-10-29T03:26:46.017Z,1.30
2023-10-29T03:27:45.997Z,1.10
2023-10-29T03:28:45.994Z,1.20
2023-10-29T03:29:46.015Z,1.20
2023-10-29T03:30:46.002Z,1.10
2023-10-29T03:31:45.994Z,0.90
2023-10-29T03:32:46.005Z,1.20
2023-10-29T03:33:45.961Z,1.10
2023-10-29T03:34:46.221Z,1.10
2023-10-29T03:35:45.977Z,0.90
2023-10-29T03:36:45.933Z,1.20
2023-10-29T03:37:45.931Z,1.20
2023-10-29T03:38:45.932Z,1.40
2023-10-29T03:39:45.938Z,1.00
2023-10-29T03:40:45.903Z,1.10
2023-10-29T03:41:45.920Z,0.80
2023-10-29T03:42:45.885Z,1.10
2023-10-29T03:43:45.900Z,1.10
2023-10-29T03:44:46.115Z,1.10
2023-10-29T03:45:45.863Z,1.10
2023-10-29T03:46:45.853Z,1.30
2023-10-29T03:47:45.905Z,1.00
2023-10-29T03:48:45.874Z,0.90
2023-10-29T03:49:45.830Z,1.10
2023-10-29T03:50:45.914Z,1.00
2023-10-29T03:51:45.817Z,1.00
2023-10-29T03:52:45.809Z,1.10
2023-10-29T03:53:45.874Z,1.20
2023-10-29T03:54:45.931Z,1.20
2023-10-29T03:55:45.799Z,1.20
2023-10-29T03:56:45.843Z,1.00
2023-10-29T03:57:45.797Z,1.10
2023-10-29T03:58:45.787Z,1.20
2023-10-29T03:59:45.802Z,1.50
2023-10-29T04:00:45.744Z,1.10
2023-10-29T04:01:45.752Z,1.00
2023-10-29T04:02:45.808Z,1.00
2023-10-29T04:03:45.851Z,0.90
2023-10-29T04:05:01.729Z,1.00
2023-10-29T04:05:47.733Z,1.10
2023-10-29T04:06:45.698Z,1.10
2023-10-29T04:07:45.717Z,1.00
2023-10-29T04:08:45.703Z,1.20
2023-10-29T04:09:45.671Z,1.30
2023-10-29T04:10:45.670Z,1.10
2023-10-29T04:11:45.727Z,1.10
2023-10-29T04:12:45.675Z,1.00
2023-10-29T04:13:45.657Z,1.30
2023-10-29T04:14:45.742Z,1.60
2023-10-29T04:15:45.639Z,1.30
2023-10-29T04:16:45.646Z,1.00
2023-10-29T04:17:45.655Z,1.20
2023-10-29T04:18:45.608Z,1.30
2023-10-29T04:19:45.601Z,1.50
2023-10-29T04:20:45.614Z,1.30
2023-10-29T04:21:45.608Z,1.30
2023-10-29T04:22:45.575Z,1.40
2023-10-29T04:23:45.575Z,1.20
2023-10-29T04:24:45.587Z,1.30
2023-10-29T04:25:45.577Z,1.50
2023-10-29T04:26:45.610Z,1.70
2023-10-29T04:27:45.534Z,1.20
2023-10-29T04:28:45.532Z,1.30
2023-10-29T04:29:45.558Z,1.10
2023-10-29T04:30:45.633Z,1.30
2023-10-29T04:31:45.504Z,1.30
2023-10-29T04:32:45.567Z,1.20
2023-10-29T04:33:46.512Z,1.80
2023-10-29T04:34:45.522Z,1.30
2023-10-29T04:35:45.589Z,1.10
2023-10-29T04:36:45.457Z,1.40
2023-10-29T04:37:45.449Z,1.50
2023-10-29T04:38:45.461Z,1.40
2023-10-29T04:39:45.461Z,1.40
2023-10-29T04:40:45.451Z,1.50
2023-10-29T04:41:45.445Z,1.40
2023-10-29T04:42:45.419Z,1.20
2023-10-29T04:43:45.411Z,1.50
2023-10-29T04:44:45.482Z,1.80
2023-10-29T04:45:45.415Z,1.40
2023-10-29T04:46:45.379Z,1.20
2023-10-29T04:47:45.474Z,1.30
2023-10-29T04:48:45.401Z,1.30
2023-10-29T04:49:45.443Z,1.90
2023-10-29T04:50:45.408Z,1.50
2023-10-29T04:51:45.340Z,1.20
2023-10-29T04:52:45.331Z,1.60
2023-10-29T04:53:45.366Z,1.40
2023-10-29T04:54:45.384Z,1.50
2023-10-29T04:55:45.312Z,1.40
2023-10-29T04:56:45.318Z,1.50
2023-10-29T04:57:45.296Z,1.70
2023-10-29T04:58:45.334Z,1.70
2023-10-29T04:59:45.333Z,1.50
2023-10-29T05:00:45.271Z,1.30
2023-10-29T05:01:45.284Z,1.40
2023-10-29T05:02:45.372Z,1.40
2023-10-29T05:03:45.365Z,1.60
2023-10-29T05:04:45.396Z,1.20
2023-10-29T05:05:45.250Z,1.20
2023-10-29T05:06:45.220Z,1.40
2023-10-29T05:07:45.215Z,1.60
2023-10-29T05:08:45.324Z,1.10
2023-10-29T05:09:45.204Z,1.10
2023-10-29T05:10:45.220Z,1.30
2023-10-29T05:11:45.226Z,1.40
2023-10-29T05:12:45.199Z,1.20
2023-10-29T05:13:45.196Z,1.20
2023-10-29T05:14:45.198Z,1.10
2023-10-29T05:15:45.155Z,1.70
2023-10-29T05:16:45.192Z,1.00
2023-10-29T05:17:45.225Z,1.20
2023-10-29T05:18:45.126Z,1.20
2023-10-29T05:19:45.537Z,1.40
2023-10-29T05:20:45.147Z,1.20
2023-10-29T05:21:45.122Z,1.20
2023-10-29T05:22:45.119Z,1.50
2023-10-29T05:23:45.119Z,1.00
2023-10-29T05:24:45.140Z,1.20
2023-10-29T05:25:45.070Z,1.40
2023-10-29T05:26:45.093Z,1.50
2023-10-29T05:27:45.092Z,1.40
2023-10-29T05:28:45.047Z,1.30
2023-10-29T05:29:45.091Z,1.80
2023-10-29T05:30:45.054Z,1.10
2023-10-29T05:31:45.052Z,1.50
2023-10-29T05:32:45.107Z,1.50
2023-10-29T05:33:45.014Z,1.40
2023-10-29T05:34:45.003Z,1.20
2023-10-29T05:35:45.034Z,1.10
2023-10-29T05:36:45.037Z,1.10
2023-10-29T05:37:45.018Z,1.30
2023-10-29T05:38:44.991Z,1.40
2023-10-29T05:39:44.970Z,1.20
2023-10-29T05:40:44.972Z,1.40
2023-10-29T05:41:45.000Z,1.70
2023-10-29T05:42:44.943Z,1.40
2023-10-29T05:43:44.945Z,1.40
2023-10-29T05:44:44.947Z,1.30
2023-10-29T05:45:44.953Z,1.40
2023-10-29T05:46:44.952Z,1.10
2023-10-29T05:47:44.964Z,1.20
2023-10-29T05:48:44.925Z,1.10
2023-10-29T05:49:44.891Z,1.10
2023-10-29T05:50:44.949Z,1.00
2023-10-29T05:51:44.904Z,1.50
2023-10-29T05:52:44.873Z,1.20
2023-10-29T05:53:44.876Z,1.30
2023-10-29T05:54:44.853Z,1.20
2023-10-29T05:55:44.889Z,1.30
2023-10-29T05:56:44.854Z,1.40
2023-10-29T05:57:44.827Z,1.60
2023-10-29T05:58:44.832Z,1.50
2023-10-29T05:59:44.864Z,1.40
2023-10-29T06:00:44.903Z,1.40
2023-10-29T06:01:44.796Z,1.60
2023-10-29T06:02:44.860Z,1.60
2023-10-29T06:03:45.041Z,1.60
2023-10-29T06:04:44.871Z,1.20
2023-10-29T06:05:44.784Z,1.30
2023-10-29T06:06:44.754Z,1.50
2023-10-29T06:07:44.760Z,1.30
2023-10-29T06:08:44.788Z,1.40
2023-10-29T06:09:44.756Z,1.30
2023-10-29T06:10:44.735Z,1.10
2023-10-29T06:11:44.749Z,1.00
2023-10-29T06:12:44.718Z,1.30
2023-10-29T06:13:44.732Z,1.10
2023-10-29T06:14:44.734Z,1.40
2023-10-29T06:15:44.693Z,1.30
2023-10-29T06:16:44.713Z,1.60
2023-10-29T06:17:44.741Z,1.10
2023-10-29T06:18:44.763Z,0.80
2023-10-29T06:19:44.673Z,1.10
2023-10-29T06:20:44.699Z,1.00
2023-10-29T06:21:44.652Z,1.00
2023-10-29T06:22:45.375Z,0.90
2023-10-29T06:23:44.686Z,1.00
2023-10-29T06:24:44.624Z,1.20
2023-10-29T06:25:44.618Z,0.90
2023-10-29T06:26:44.638Z,0.90
2023-10-29T06:27:44.627Z,0.90
2023-10-29T06:28:44.621Z,1.20
2023-10-29T06:29:44.670Z,0.90
2023-10-29T06:30:44.605Z,0.80
2023-10-29T06:31:44.575Z,1.00
2023-10-29T06:32:44.652Z,1.30
2023-10-29T06:33:44.551Z,1.10
2023-10-29T06:34:44.544Z,1.10
2023-10-29T06:35:44.594Z,1.00
2023-10-29T06:36:44.532Z,1.20
2023-10-29T06:37:44.561Z,0.90
2023-10-29T06:38:44.551Z,0.90
2023-10-29T06:39:44.505Z,1.00
2023-10-29T06:40:44.499Z,0.70
2023-10-29T06:41:44.543Z,0.80
2023-10-29T06:42:44.507Z,0.80
2023-10-29T06:43:44.481Z,1.20
2023-10-29T06:44:44.496Z,1.10
2023-10-29T06:45:44.475Z,1.10
2023-10-29T06:46:44.545Z,0.90
2023-10-29T06:47:44.511Z,1.20
2023-10-29T06:48:44.429Z,0.90
2023-10-29T06:49:44.421Z,1.10
2023-10-29T06:50:44.430Z,1.00
2023-10-29T06:51:44.439Z,1.30
2023-10-29T06:52:44.399Z,1.10
2023-10-29T06:53:44.403Z,0.90
2023-10-29T06:54:44.383Z,1.20
2023-10-29T06:55:44.379Z,1.00
2023-10-29T06:56:44.553Z,1.20
2023-10-29T06:57:44.376Z,1.00
2023-10-29T06:58:44.357Z,1.10
2023-10-29T06:59:44.364Z,1.30
2023-10-29T07:00:44.365Z,1.40
2023-10-29T07:01:44.359Z,1.00
2023-10-29T07:02:44.426Z,1.40
2023-10-29T07:03:44.436Z,1.10
2023-10-29T07:04:44.342Z,1.10
2023-10-29T07:05:44.374Z,1.00
2023-10-29T07:06:44.523Z,1.10
2023-10-29T07:07:44.285Z,1.30
2023-10-29T07:08:44.314Z,1.20
2023-10-29T07:09:44.271Z,1.30
2023-10-29T07:10:44.289Z,1.20
2023-10-29T07:11:44.292Z,1.40
2023-10-29T07:12:44.259Z,1.40
2023-10-29T07:13:44.243Z,0.90
2023-10-29T07:14:44.294Z,1.00
2023-10-29T07:15:44.274Z,1.50
2023-10-29T07:16:44.224Z,1.00
2023-10-29T07:17:44.320Z,1.30
2023-10-29T07:18:44.281Z,1.30
2023-10-29T07:19:44.242Z,1.80
2023-10-29T07:20:44.201Z,1.30
2023-10-29T07:21:44.174Z,1.30
2023-10-29T07:22:44.176Z,1.30
2023-10-29T07:23:44.172Z,1.30
2023-10-29T07:24:44.187Z,1.30
2023-10-29T07:25:44.152Z,1.20
2023-10-29T07:26:44.183Z,1.50
2023-10-29T07:27:44.131Z,1.80
2023-10-29T07:28:44.132Z,1.20
2023-10-29T07:29:44.177Z,1.30
2023-10-29T07:30:44.116Z,1.20
2023-10-29T07:31:44.123Z,1.10
2023-10-29T07:32:44.157Z,1.00
2023-10-29T07:33:44.108Z,1.30
2023-10-29T07:34:44.101Z,1.10
2023-10-29T07:35:44.147Z,1.20
2023-10-29T07:36:44.197Z,1.20
2023-10-29T07:37:44.061Z,1.10
2023-10-29T07:38:44.103Z,0.90
2023-10-29T07:39:44.036Z,0.90
2023-10-29T07:40:44.037Z,1.00
2023-10-29T07:41:44.074Z,1.00
2023-10-29T07:42:44.016Z,1.10
2023-10-29T07:43:44.029Z,0.90
2023-10-29T07:44:44.001Z,0.90
2023-10-29T07:45:44.097Z,1.00
2023-10-29T07:46:43.985Z,1.00
2023-10-29T07:47:44.038Z,1.00
2023-10-29T07:48:44.005Z,0.90
2023-10-29T07:49:43.963Z,0.90
2023-10-29T07:50:43.986Z,0.70
2023-10-29T07:51:43.943Z,0.80
2023-10-29T07:52:43.974Z,0.90
2023-10-29T07:53:43.960Z,0.80
2023-10-29T07:54:43.917Z,1.10
2023-10-29T07:55:43.917Z,1.10
2023-10-29T07:56:43.949Z,1.00
2023-10-29T07:57:43.917Z,1.30
2023-10-29T07:58:43.891Z,1.70
2023-10-29T07:59:43.920Z,1.00
2023-10-29T08:00:43.877Z,0.90
2023-10-29T08:01:43.972Z,1.10
2023-10-29T08:02:44.032Z,1.10
2023-10-29T08:03:43.962Z,1.40
2023-10-29T08:04:43.848Z,1.00
2023-10-29T08:05:43.854Z,1.00
2023-10-29T08:06:43.849Z,1.30
2023-10-29T08:07:43.853Z,1.30
2023-10-29T08:08:43.849Z,1.40
2023-10-29T08:09:43.798Z,1.20
2023-10-29T08:10:43.794Z,1.30
2023-10-29T08:11:43.858Z,1.10
2023-10-29T08:12:43.778Z,1.10
2023-10-29T08:13:43.770Z,1.10
2023-10-29T08:14:43.806Z,1.20
2023-10-29T08:15:44.024Z,1.20
2023-10-29T08:16:44.796Z,1.40
2023-10-29T08:17:43.858Z,1.30
2023-10-29T08:18:43.811Z,1.20
2023-10-29T08:19:43.721Z,1.30
2023-10-29T08:20:43.753Z,1.20
2023-10-29T08:21:43.715Z,1.10
2023-10-29T08:22:45.919Z,1.10
2023-10-29T08:23:44.768Z,1.00
2023-10-29T08:24:43.680Z,1.10
2023-10-29T08:25:43.699Z,1.30
2023-10-29T08:26:43.712Z,1.20
2023-10-29T08:27:43.655Z,1.20
2023-10-29T08:28:43.649Z,1.10
2023-10-29T08:29:43.713Z,1.10
2023-10-29T08:30:43.683Z,1.20
2023-10-29T08:31:43.694Z,1.00
2023-10-29T08:32:43.688Z,1.10
2023-10-29T08:33:43.620Z,0.80
2023-10-29T08:34:43.630Z,0.90
2023-10-29T08:35:43.637Z,0.90
2023-10-29T08:36:43.592Z,0.80
2023-10-29T08:37:46.071Z,1.10
2023-10-29T08:38:43.602Z,0.80
2023-10-29T08:39:43.593Z,0.70
2023-10-29T08:40:43.563Z,1.00
2023-10-29T08:41:43.577Z,0.90
2023-10-29T08:42:43.548Z,0.80
2023-10-29T08:43:43.569Z,1.10
2023-10-29T08:44:43.642Z,0.90
2023-10-29T08:45:43.624Z,1.20
2023-10-29T08:46:43.528Z,1.00
2023-10-29T08:47:43.578Z,1.30
2023-10-29T08:48:43.554Z,0.80
2023-10-29T08:49:43.497Z,1.10
2023-10-29T08:50:43.497Z,1.00
2023-10-29T08:51:43.470Z,0.70
2023-10-29T08:52:43.459Z,1.20
2023-10-29T08:53:44.499Z,0.90
2023-10-29T08:54:43.452Z,0.80
2023-10-29T08:55:43.436Z,0.80
2023-10-29T08:56:43.453Z,0.80
2023-10-29T08:57:43.426Z,0.90
2023-10-29T08:58:43.454Z,0.90
2023-10-29T08:59:43.458Z,0.70
2023-10-29T09:00:46.991Z,0.70
2023-10-29T09:01:44.431Z,0.90
2023-10-29T09:02:43.501Z,0.80
2023-10-29T09:03:43.564Z,0.70
2023-10-29T09:04:43.375Z,0.90
2023-10-29T09:05:43.438Z,0.60
2023-10-29T09:06:43.351Z,0.70
2023-10-29T09:07:44.372Z,0.80
2023-10-29T09:08:43.367Z,0.50
2023-10-29T09:09:43.334Z,0.70
2023-10-29T09:10:43.807Z,0.60
2023-10-29T09:11:43.341Z,0.70
2023-10-29T09:12:43.331Z,0.70
2023-10-29T09:13:43.302Z,0.60
2023-10-29T09:14:43.316Z,0.60
2023-10-29T09:15:43.358Z,0.70
2023-10-29T09:16:43.313Z,0.70
2023-10-29T09:17:43.350Z,0.50
2023-10-29T09:18:43.299Z,0.50
2023-10-29T09:19:43.257Z,0.70
2023-10-29T09:20:43.256Z,0.70
2023-10-29T09:21:43.270Z,0.60
2023-10-29T09:22:43.238Z,1.00
2023-10-29T09:23:43.229Z,0.60
2023-10-29T09:24:43.246Z,0.60
2023-10-29T09:25:43.242Z,1.20
2023-10-29T09:26:43.277Z,1.80
2023-10-29T09:27:43.203Z,0.60
2023-10-29T09:28:43.190Z,1.20
2023-10-29T09:29:43.217Z,1.50
2023-10-29T09:30:43.211Z,1.20
2023-10-29T09:31:43.239Z,0.60
2023-10-29T09:32:43.192Z,0.70
2023-10-29T09:33:43.187Z,0.60
2023-10-29T09:34:43.144Z,0.90
2023-10-29T09:35:43.179Z,0.90
2023-10-29T09:36:43.131Z,0.80
2023-10-29T09:37:43.118Z,0.60
2023-10-29T09:38:43.114Z,0.70
2023-10-29T09:39:43.100Z,0.60
2023-10-29T09:40:43.114Z,0.60
2023-10-29T09:41:43.127Z,0.70
2023-10-29T09:42:43.081Z,0.60
2023-10-29T09:43:43.067Z,0.60
2023-10-29T09:44:43.111Z,0.60
2023-10-29T09:45:43.110Z,0.80
2023-10-29T09:46:43.049Z,0.50
2023-10-29T09:47:43.097Z,0.50
2023-10-29T09:48:43.069Z,0.60
2023-10-29T09:49:43.053Z,0.40
2023-10-29T09:50:43.048Z,0.70
2023-10-29T09:51:43.032Z,0.50
2023-10-29T09:52:43.008Z,0.40
2023-10-29T09:53:43.060Z,0.70
2023-10-29T09:54:43.041Z,0.50
2023-10-29T09:55:42.981Z,0.60
2023-10-29T09:56:43.000Z,0.50
2023-10-29T09:57:42.968Z,0.50
2023-10-29T09:58:42.955Z,0.80
2023-10-29T09:59:43.027Z,0.80
2023-10-29T10:00:42.946Z,0.50
2023-10-29T10:01:57.558Z,0.60
2023-10-29T10:02:45.055Z,0.60
2023-10-29T10:03:43.021Z,0.60
2023-10-29T10:04:42.933Z,0.60
2023-10-29T10:05:42.915Z,0.60
2023-10-29T10:06:42.899Z,0.60
2023-10-29T10:07:42.895Z,0.70
2023-10-29T10:08:42.929Z,0.60
2023-10-29T10:09:42.894Z,0.60
2023-10-29T10:10:42.862Z,0.60
2023-10-29T10:11:42.869Z,0.60
2023-10-29T10:12:42.843Z,0.40
2023-10-29T10:13:43.281Z,0.50
2023-10-29T10:14:42.835Z,0.70
2023-10-29T10:15:42.822Z,0.50
2023-10-29T10:16:42.823Z,0.50
2023-10-29T10:17:42.896Z,0.40
2023-10-29T10:18:42.845Z,0.50
2023-10-29T10:19:42.796Z,0.80
2023-10-29T10:20:42.802Z,0.50
2023-10-29T10:21:42.776Z,0.50
2023-10-29T10:22:42.815Z,0.50
2023-10-29T10:23:42.832Z,0.60
2023-10-29T10:24:42.749Z,0.40
2023-10-29T10:25:42.754Z,0.80
2023-10-29T10:26:42.754Z,0.70
2023-10-29T10:27:42.749Z,0.40
2023-10-29T10:28:42.719Z,0.50
2023-10-29T10:29:42.731Z,0.70
2023-10-29T10:30:42.700Z,0.70
2023-10-29T10:31:42.774Z,0.40
2023-10-29T10:32:42.766Z,0.70
2023-10-29T10:33:42.692Z,0.60
2023-10-29T10:34:42.669Z,0.90
2023-10-29T10:35:42.679Z,0.80
2023-10-29T10:36:42.707Z,0.70
2023-10-29T10:37:42.651Z,0.50
2023-10-29T10:38:42.662Z,0.60
2023-10-29T10:39:42.633Z,0.70
2023-10-29T10:40:42.629Z,0.50
2023-10-29T10:41:42.649Z,0.70
2023-10-29T10:42:42.610Z,0.50
2023-10-29T10:43:42.602Z,0.60
2023-10-29T10:44:42.635Z,0.60
2023-10-29T10:45:42.605Z,1.20
2023-10-29T10:46:42.605Z,0.70
2023-10-29T10:47:42.603Z,0.40
2023-10-29T10:48:42.626Z,0.80
2023-10-29T10:49:42.559Z,0.60
2023-10-29T10:50:42.623Z,0.60
2023-10-29T10:51:42.578Z,0.70
2023-10-29T10:52:42.539Z,0.50
2023-10-29T10:53:42.662Z,0.70
2023-10-29T10:54:43.518Z,0.70
2023-10-29T10:55:59.516Z,0.80
2023-10-29T10:56:44.554Z,0.70
2023-10-29T10:57:42.502Z,0.70
2023-10-29T10:58:42.501Z,0.60
2023-10-29T10:59:42.503Z,0.60
2023-10-29T11:00:42.501Z,0.70
2023-10-29T11:01:42.511Z,0.60
2023-10-29T11:02:42.606Z,0.50
2023-10-29T11:03:42.590Z,0.60
2023-10-29T11:04:42.654Z,0.90
2023-10-29T11:05:42.510Z,0.60
2023-10-29T11:06:42.433Z,0.80
2023-10-29T11:07:42.422Z,0.80
2023-10-29T11:08:42.418Z,0.70
2023-10-29T11:09:42.431Z,0.80
2023-10-29T11:10:42.392Z,0.50
2023-10-29T11:11:42.430Z,0.70
2023-10-29T11:12:42.379Z,0.60
2023-10-29T11:13:42.368Z,1.00
2023-10-29T11:14:42.392Z,0.80
2023-10-29T11:15:42.358Z,0.70
2023-10-29T11:16:42.392Z,0.60
2023-10-29T11:17:42.450Z,0.80
2023-10-29T11:18:42.359Z,0.60
2023-10-29T11:19:42.352Z,0.70
2023-10-29T11:20:42.317Z,0.80
2023-10-29T11:21:42.322Z,0.80
2023-10-29T11:22:42.300Z,0.90
2023-10-29T11:23:42.338Z,1.10
2023-10-29T11:24:42.327Z,1.10
2023-10-29T11:25:42.279Z,1.00
2023-10-29T11:26:42.307Z,1.10
2023-10-29T11:27:42.283Z,1.10
2023-10-29T11:28:42.279Z,1.40
2023-10-29T11:29:42.251Z,1.30
2023-10-29T11:30:42.238Z,0.90
2023-10-29T11:31:42.254Z,0.90
2023-10-29T11:32:42.365Z,1.10
2023-10-29T11:33:42.271Z,0.60
2023-10-29T11:34:42.204Z,0.80
2023-10-29T11:35:42.226Z,1.00
2023-10-29T11:36:42.189Z,1.00
2023-10-29T11:37:42.250Z,0.90
2023-10-29T11:38:42.206Z,1.10
2023-10-29T11:39:42.169Z,0.80
2023-10-29T11:40:42.165Z,0.90
2023-10-29T11:41:44.739Z,0.80
2023-10-29T11:42:42.172Z,0.70
2023-10-29T11:43:42.137Z,1.40
2023-10-29T11:44:42.186Z,0.80
2023-10-29T11:45:42.140Z,0.80
2023-10-29T11:46:42.109Z,0.80
2023-10-29T11:47:42.213Z,0.90
2023-10-29T11:48:42.127Z,1.00
2023-10-29T11:49:42.087Z,0.90
2023-10-29T11:50:42.110Z,0.80
2023-10-29T11:51:42.123Z,0.70
2023-10-29T11:52:42.095Z,0.80
2023-10-29T11:53:42.099Z,0.60
2023-10-29T11:54:42.048Z,0.80
2023-10-29T11:55:42.039Z,0.70
2023-10-29T11:56:42.164Z,0.90
2023-10-29T11:57:42.026Z,0.80
2023-10-29T11:58:42.017Z,1.00
2023-10-29T11:59:42.066Z,0.70
2023-10-29T12:00:42.060Z,0.80
2023-10-29T12:01:42.021Z,0.70
2023-10-29T12:02:42.013Z,1.00
2023-10-29T12:03:42.123Z,1.50
2023-10-29T12:04:42.069Z,0.70
2023-10-29T12:05:42.063Z,1.00
2023-10-29T12:06:41.981Z,1.00
2023-10-29T12:07:41.946Z,1.10
2023-10-29T12:08:41.959Z,0.80
2023-10-29T12:09:41.931Z,1.00
2023-10-29T12:10:41.957Z,1.20
2023-10-29T12:11:41.952Z,0.80
2023-10-29T12:12:42.695Z,0.80
2023-10-29T12:13:42.961Z,0.70
2023-10-29T12:14:41.994Z,1.10
2023-10-29T12:15:41.911Z,0.90
2023-10-29T12:16:41.916Z,0.80
2023-10-29T12:17:41.918Z,1.20
2023-10-29T12:18:41.895Z,1.00
2023-10-29T12:19:41.878Z,1.10
2023-10-29T12:20:41.905Z,1.70
2023-10-29T12:21:41.833Z,1.70
2023-10-29T12:22:41.843Z,1.70
2023-10-29T12:23:41.840Z,1.40
2023-10-29T12:24:41.840Z,1.20
2023-10-29T12:25:41.807Z,1.20
2023-10-29T12:26:41.833Z,1.50
2023-10-29T12:27:41.790Z,1.30
2023-10-29T12:28:41.785Z,1.50
2023-10-29T12:29:41.815Z,1.10
2023-10-29T12:30:41.842Z,1.00
2023-10-29T12:31:41.785Z,1.10
2023-10-29T12:32:41.825Z,1.10
2023-10-29T12:33:42.804Z,0.90
2023-10-29T12:34:41.761Z,1.00
2023-10-29T12:35:41.750Z,1.00
2023-10-29T12:36:41.717Z,1.30
2023-10-29T12:37:41.728Z,1.20
2023-10-29T12:38:41.772Z,1.20
2023-10-29T12:39:41.698Z,1.20
2023-10-29T12:40:41.689Z,1.30
2023-10-29T12:41:41.692Z,1.20
2023-10-29T12:42:41.682Z,1.60
2023-10-29T12:43:41.691Z,1.20
2023-10-29T12:44:41.786Z,1.40
2023-10-29T12:45:41.650Z,1.10
2023-10-29T12:46:41.663Z,1.30
2023-10-29T12:47:41.709Z,1.40
2023-10-29T12:48:41.675Z,1.40
2023-10-29T12:49:41.615Z,1.30
2023-10-29T12:50:41.703Z,1.60
2023-10-29T12:51:41.591Z,1.10
2023-10-29T12:52:41.611Z,1.20
2023-10-29T12:53:41.701Z,1.00
2023-10-29T12:54:41.567Z,1.50
2023-10-29T12:55:41.557Z,1.60
2023-10-29T12:56:41.561Z,1.60
2023-10-29T12:57:41.574Z,1.60
2023-10-29T12:58:41.542Z,1.10
2023-10-29T12:59:41.543Z,1.40
2023-10-29T13:00:41.550Z,1.20
2023-10-29T13:01:41.562Z,0.90
2023-10-29T13:02:41.645Z,1.20
2023-10-29T13:03:41.579Z,0.90
2023-10-29T13:04:41.500Z,0.90
2023-10-29T13:05:41.488Z,0.70
2023-10-29T13:06:43.606Z,0.70
2023-10-29T13:07:41.471Z,0.70
2023-10-29T13:08:41.467Z,1.00
2023-10-29T13:09:41.461Z,0.90
2023-10-29T13:10:41.446Z,1.00
2023-10-29T13:11:41.462Z,1.10
2023-10-29T13:12:41.426Z,1.10
2023-10-29T13:13:41.436Z,0.80
2023-10-29T13:14:41.414Z,1.20
2023-10-29T13:15:41.428Z,0.90
2023-10-29T13:16:41.471Z,1.50
2023-10-29T13:17:41.414Z,1.00
2023-10-29T13:18:41.440Z,1.00